sensor_id;sensor_type;location;lat;lon;timestamp;temperature;humidity
4081;DHT22;2055;50.074;8.436;2023-02-12T00:00:00;6.60;99.90
4081;DHT22;2055;50.074;8.436;2023-02-12T00:02:26;6.60;99.90
4081;DHT22;2055;50.074;8.436;2023-02-12T00:04:51;6.70;99.90
4081;DHT22;2055;50.074;8.436;2023-02-12T00:07:17;6.70;99.90
4081;DHT22;2055;50.074;8.436;2023-02-12T00:09:43;6.70;99.90
4081;DHT22;2055;50.074;8.436;2023-02-12T00:12:08;6.70;99.90
4081;DHT22;2055;50.074;8.436;2023-02-12T00:14:36;6.70;99.90
4081;DHT22;2055;50.074;8.436;2023-02-12T00:17:02;6.70;99.90
4081;DHT22;2055;50.074;8.436;2023-02-12T00:19:28;6.70;99.90
4081;DHT22;2055;50.074;8.436;2023-02-12T00:21:54;6.70;99.90
4081;DHT22;2055;50.074;8.436;2023-02-12T00:24:19;6.60;99.90
4081;DHT22;2055;50.074;8.436;2023-02-12T00:26:44;6.80;99.90
4081;DHT22;2055;50.074;8.436;2023-02-12T00:29:12;6.80;99.90
4081;DHT22;2055;50.074;8.436;2023-02-12T00:31:38;6.90;99.90
4081;DHT22;2055;50.074;8.436;2023-02-12T00:34:03;6.90;99.90
4081;DHT22;2055;50.074;8.436;2023-02-12T00:36:30;6.80;99.90
4081;DHT22;2055;50.074;8.436;2023-02-12T00:38:56;6.80;99.90
4081;DHT22;2055;50.074;8.436;2023-02-12T00:41:22;6.80;99.90
4081;DHT22;2055;50.074;8.436;2023-02-12T00:43:48;6.80;99.90
4081;DHT22;2055;50.074;8.436;2023-02-12T00:46:14;6.90;99.90
4081;DHT22;2055;50.074;8.436;2023-02-12T00:48:40;6.90;99.90
4081;DHT22;2055;50.074;8.436;2023-02-12T00:51:06;7.00;99.90
4081;DHT22;2055;50.074;8.436;2023-02-12T00:53:32;7.00;99.90
4081;DHT22;2055;50.074;8.436;2023-02-12T00:55:58;6.90;99.90
4081;DHT22;2055;50.074;8.436;2023-02-12T00:58:24;7.00;99.90
4081;DHT22;2055;50.074;8.436;2023-02-12T01:00:50;7.00;99.90
4081;DHT22;2055;50.074;8.436;2023-02-12T01:03:16;6.90;99.90
4081;DHT22;2055;50.074;8.436;2023-02-12T01:05:42;6.90;99.90
4081;DHT22;2055;50.074;8.436;2023-02-12T01:08:09;6.90;99.90
4081;DHT22;2055;50.074;8.436;2023-02-12T01:10:35;6.90;99.90
4081;DHT22;2055;50.074;8.436;2023-02-12T01:13:00;6.90;99.90
4081;DHT22;2055;50.074;8.436;2023-02-12T01:15:26;6.90;99.90
4081;DHT22;2055;50.074;8.436;2023-02-12T01:17:52;6.90;99.90
4081;DHT22;2055;50.074;8.436;2023-02-12T01:20:19;6.80;99.90
4081;DHT22;2055;50.074;8.436;2023-02-12T01:22:46;6.80;99.90
4081;DHT22;2055;50.074;8.436;2023-02-12T01:25:11;6.80;99.90
4081;DHT22;2055;50.074;8.436;2023-02-12T01:27:37;6.80;99.90
4081;DHT22;2055;50.074;8.436;2023-02-12T01:30:04;6.80;99.90
4081;DHT22;2055;50.074;8.436;2023-02-12T01:32:30;6.80;99.90
4081;DHT22;2055;50.074;8.436;2023-02-12T01:34:56;6.80;99.90
4081;DHT22;2055;50.074;8.436;2023-02-12T01:37:21;6.80;99.90
4081;DHT22;2055;50.074;8.436;2023-02-12T01:39:47;6.80;99.90
4081;DHT22;2055;50.074;8.436;2023-02-12T01:42:13;6.80;99.90
4081;DHT22;2055;50.074;8.436;2023-02-12T01:47:40;6.90;99.90
4081;DHT22;2055;50.074;8.436;2023-02-12T01:50:08;6.90;99.90
4081;DHT22;2055;50.074;8.436;2023-02-12T01:52:37;6.90;99.90
4081;DHT22;2055;50.074;8.436;2023-02-12T01:55:06;6.90;99.90
4081;DHT22;2055;50.074;8.436;2023-02-12T01:57:37;6.90;99.90
4081;DHT22;2055;50.074;8.436;2023-02-12T02:00:06;6.90;99.90
4081;DHT22;2055;50.074;8.436;2023-02-12T02:02:33;6.90;99.90
4081;DHT22;2055;50.074;8.436;2023-02-12T02:05:02;6.90;99.90
4081;DHT22;2055;50.074;8.436;2023-02-12T02:07:28;6.90;99.90
4081;DHT22;2055;50.074;8.436;2023-02-12T02:09:55;6.90;99.90
4081;DHT22;2055;50.074;8.436;2023-02-12T02:12:21;6.90;99.90
4081;DHT22;2055;50.074;8.436;2023-02-12T02:15:06;6.90;99.90
4081;DHT22;2055;50.074;8.436;2023-02-12T02:23:18;6.90;99.90
4081;DHT22;2055;50.074;8.436;2023-02-12T02:31:51;6.90;99.90
4081;DHT22;2055;50.074;8.436;2023-02-12T02:34:32;6.80;99.90
4081;DHT22;2055;50.074;8.436;2023-02-12T02:37:17;6.80;99.90
4081;DHT22;2055;50.074;8.436;2023-02-12T02:39:48;6.80;99.90
4081;DHT22;2055;50.074;8.436;2023-02-12T02:42:16;6.80;99.90
4081;DHT22;2055;50.074;8.436;2023-02-12T02:44:49;6.80;99.90
4081;DHT22;2055;50.074;8.436;2023-02-12T02:47:17;6.80;99.90
4081;DHT22;2055;50.074;8.436;2023-02-12T02:49:48;6.80;99.90
4081;DHT22;2055;50.074;8.436;2023-02-12T02:52:23;6.80;99.90
4081;DHT22;2055;50.074;8.436;2023-02-12T02:54:59;6.80;99.90
4081;DHT22;2055;50.074;8.436;2023-02-12T02:57:30;6.80;99.90
4081;DHT22;2055;50.074;8.436;2023-02-12T03:02:48;6.70;99.90
4081;DHT22;2055;50.074;8.436;2023-02-12T03:05:28;6.70;99.90
4081;DHT22;2055;50.074;8.436;2023-02-12T03:08:03;6.70;99.90
4081;DHT22;2055;50.074;8.436;2023-02-12T03:10:34;6.70;99.90
4081;DHT22;2055;50.074;8.436;2023-02-12T03:13:09;6.60;99.90
4081;DHT22;2055;50.074;8.436;2023-02-12T03:15:40;6.60;99.90
4081;DHT22;2055;50.074;8.436;2023-02-12T03:18:11;6.60;99.90
4081;DHT22;2055;50.074;8.436;2023-02-12T03:20:43;6.60;99.90
4081;DHT22;2055;50.074;8.436;2023-02-12T03:23:14;6.60;99.90
4081;DHT22;2055;50.074;8.436;2023-02-12T03:25:54;6.50;99.90
4081;DHT22;2055;50.074;8.436;2023-02-12T03:28:26;6.50;99.90
4081;DHT22;2055;50.074;8.436;2023-02-12T03:38:52;6.50;99.90
4081;DHT22;2055;50.074;8.436;2023-02-12T03:41:43;6.50;99.90
4081;DHT22;2055;50.074;8.436;2023-02-12T03:44:22;6.50;99.90
4081;DHT22;2055;50.074;8.436;2023-02-12T03:47:04;6.50;99.90
4081;DHT22;2055;50.074;8.436;2023-02-12T03:49:45;6.50;99.90
4081;DHT22;2055;50.074;8.436;2023-02-12T03:52:13;6.50;99.90
4081;DHT22;2055;50.074;8.436;2023-02-12T03:54:39;6.50;99.90
4081;DHT22;2055;50.074;8.436;2023-02-12T03:57:07;6.50;99.90
4081;DHT22;2055;50.074;8.436;2023-02-12T03:59:37;6.40;99.90
4081;DHT22;2055;50.074;8.436;2023-02-12T04:02:03;6.40;99.90
4081;DHT22;2055;50.074;8.436;2023-02-12T04:04:29;6.40;99.90
4081;DHT22;2055;50.074;8.436;2023-02-12T04:06:56;6.40;99.90
4081;DHT22;2055;50.074;8.436;2023-02-12T04:09:23;6.40;99.90
4081;DHT22;2055;50.074;8.436;2023-02-12T04:11:57;6.40;99.90
4081;DHT22;2055;50.074;8.436;2023-02-12T04:14:46;6.40;99.90
4081;DHT22;2055;50.074;8.436;2023-02-12T04:17:29;6.50;99.90
4081;DHT22;2055;50.074;8.436;2023-02-12T04:20:02;6.50;99.90
4081;DHT22;2055;50.074;8.436;2023-02-12T04:25:30;6.50;99.90
4081;DHT22;2055;50.074;8.436;2023-02-12T04:31:05;6.50;99.90
4081;DHT22;2055;50.074;8.436;2023-02-12T04:33:46;6.50;99.90
4081;DHT22;2055;50.074;8.436;2023-02-12T04:36:22;6.50;99.90
4081;DHT22;2055;50.074;8.436;2023-02-12T04:38:53;6.50;99.90
4081;DHT22;2055;50.074;8.436;2023-02-12T04:41:19;6.50;99.90
4081;DHT22;2055;50.074;8.436;2023-02-12T04:43:45;6.50;99.90
4081;DHT22;2055;50.074;8.436;2023-02-12T04:46:11;6.50;99.90
4081;DHT22;2055;50.074;8.436;2023-02-12T04:48:53;6.50;99.90
4081;DHT22;2055;50.074;8.436;2023-02-12T04:51:19;6.50;99.90
4081;DHT22;2055;50.074;8.436;2023-02-12T04:53:45;6.40;99.90
4081;DHT22;2055;50.074;8.436;2023-02-12T04:56:11;6.50;99.90
4081;DHT22;2055;50.074;8.436;2023-02-12T04:58:38;6.60;99.90
4081;DHT22;2055;50.074;8.436;2023-02-12T05:01:03;6.40;99.90
4081;DHT22;2055;50.074;8.436;2023-02-12T05:03:29;6.40;99.90
4081;DHT22;2055;50.074;8.436;2023-02-12T05:05:54;6.40;99.90
4081;DHT22;2055;50.074;8.436;2023-02-12T05:08:20;6.40;99.90
4081;DHT22;2055;50.074;8.436;2023-02-12T05:10:47;6.40;99.90
4081;DHT22;2055;50.074;8.436;2023-02-12T05:13:12;6.40;99.90
4081;DHT22;2055;50.074;8.436;2023-02-12T05:15:38;6.40;99.90
4081;DHT22;2055;50.074;8.436;2023-02-12T05:18:04;6.30;99.90
4081;DHT22;2055;50.074;8.436;2023-02-12T05:20:30;6.30;99.90
4081;DHT22;2055;50.074;8.436;2023-02-12T05:22:55;6.30;99.90
4081;DHT22;2055;50.074;8.436;2023-02-12T05:25:21;6.20;99.90
4081;DHT22;2055;50.074;8.436;2023-02-12T05:27:46;6.20;99.90
4081;DHT22;2055;50.074;8.436;2023-02-12T05:30:12;6.10;99.90
4081;DHT22;2055;50.074;8.436;2023-02-12T05:32:37;6.10;99.90
4081;DHT22;2055;50.074;8.436;2023-02-12T05:35:03;6.10;99.90
4081;DHT22;2055;50.074;8.436;2023-02-12T05:37:29;6.10;99.90
4081;DHT22;2055;50.074;8.436;2023-02-12T05:39:56;6.00;99.90
4081;DHT22;2055;50.074;8.436;2023-02-12T05:42:21;6.00;99.90
4081;DHT22;2055;50.074;8.436;2023-02-12T05:44:47;6.00;99.90
4081;DHT22;2055;50.074;8.436;2023-02-12T05:47:12;6.00;99.90
4081;DHT22;2055;50.074;8.436;2023-02-12T05:49:38;6.00;99.90
4081;DHT22;2055;50.074;8.436;2023-02-12T05:52:03;6.00;99.90
4081;DHT22;2055;50.074;8.436;2023-02-12T05:54:29;6.00;99.90
4081;DHT22;2055;50.074;8.436;2023-02-12T05:56:54;6.00;99.90
4081;DHT22;2055;50.074;8.436;2023-02-12T05:59:22;6.00;99.90
4081;DHT22;2055;50.074;8.436;2023-02-12T06:01:49;6.00;99.90
4081;DHT22;2055;50.074;8.436;2023-02-12T06:04:19;6.00;99.90
4081;DHT22;2055;50.074;8.436;2023-02-12T06:06:44;6.00;99.90
4081;DHT22;2055;50.074;8.436;2023-02-12T06:09:11;6.00;99.90
4081;DHT22;2055;50.074;8.436;2023-02-12T06:11:37;5.90;99.90
4081;DHT22;2055;50.074;8.436;2023-02-12T06:14:04;5.90;99.90
4081;DHT22;2055;50.074;8.436;2023-02-12T06:16:31;5.90;99.90
4081;DHT22;2055;50.074;8.436;2023-02-12T06:18:57;5.90;99.90
4081;DHT22;2055;50.074;8.436;2023-02-12T06:21:25;5.90;99.90
4081;DHT22;2055;50.074;8.436;2023-02-12T06:23:51;5.90;99.90
4081;DHT22;2055;50.074;8.436;2023-02-12T06:26:18;5.90;99.90
4081;DHT22;2055;50.074;8.436;2023-02-12T06:28:44;5.90;99.90
4081;DHT22;2055;50.074;8.436;2023-02-12T06:31:20;6.00;99.90
4081;DHT22;2055;50.074;8.436;2023-02-12T06:33:46;6.10;99.90
4081;DHT22;2055;50.074;8.436;2023-02-12T06:36:11;6.10;99.90
4081;DHT22;2055;50.074;8.436;2023-02-12T06:38:37;6.10;99.90
4081;DHT22;2055;50.074;8.436;2023-02-12T06:41:03;6.10;99.90
4081;DHT22;2055;50.074;8.436;2023-02-12T06:43:28;6.10;99.90
4081;DHT22;2055;50.074;8.436;2023-02-12T06:45:54;6.10;99.90
4081;DHT22;2055;50.074;8.436;2023-02-12T06:48:20;6.10;99.90
4081;DHT22;2055;50.074;8.436;2023-02-12T06:50:45;6.10;99.90
4081;DHT22;2055;50.074;8.436;2023-02-12T06:53:11;6.20;99.90
4081;DHT22;2055;50.074;8.436;2023-02-12T06:55:36;6.20;99.90
4081;DHT22;2055;50.074;8.436;2023-02-12T06:58:02;6.20;99.90
4081;DHT22;2055;50.074;8.436;2023-02-12T07:00:28;6.20;99.90
4081;DHT22;2055;50.074;8.436;2023-02-12T07:02:54;6.20;99.90
4081;DHT22;2055;50.074;8.436;2023-02-12T07:05:20;6.30;99.90
4081;DHT22;2055;50.074;8.436;2023-02-12T07:07:46;6.30;99.90
4081;DHT22;2055;50.074;8.436;2023-02-12T07:10:12;6.40;99.90
4081;DHT22;2055;50.074;8.436;2023-02-12T07:12:37;6.40;99.90
4081;DHT22;2055;50.074;8.436;2023-02-12T07:15:03;6.40;99.90
4081;DHT22;2055;50.074;8.436;2023-02-12T07:17:29;6.50;99.90
4081;DHT22;2055;50.074;8.436;2023-02-12T07:19:55;6.50;99.90
4081;DHT22;2055;50.074;8.436;2023-02-12T07:22:20;6.50;99.90
4081;DHT22;2055;50.074;8.436;2023-02-12T07:24:47;6.50;99.90
4081;DHT22;2055;50.074;8.436;2023-02-12T07:27:13;6.50;99.90
4081;DHT22;2055;50.074;8.436;2023-02-12T07:29:38;6.50;99.90
4081;DHT22;2055;50.074;8.436;2023-02-12T07:32:04;6.50;99.90
4081;DHT22;2055;50.074;8.436;2023-02-12T07:34:30;6.50;99.90
4081;DHT22;2055;50.074;8.436;2023-02-12T07:36:55;6.50;99.90
4081;DHT22;2055;50.074;8.436;2023-02-12T07:39:21;6.60;99.90
4081;DHT22;2055;50.074;8.436;2023-02-12T07:41:46;6.60;99.90
4081;DHT22;2055;50.074;8.436;2023-02-12T07:44:12;6.60;99.90
4081;DHT22;2055;50.074;8.436;2023-02-12T07:46:45;6.70;99.90
4081;DHT22;2055;50.074;8.436;2023-02-12T07:49:13;6.70;99.90
4081;DHT22;2055;50.074;8.436;2023-02-12T07:51:39;6.80;99.90
4081;DHT22;2055;50.074;8.436;2023-02-12T07:54:05;6.80;99.90
4081;DHT22;2055;50.074;8.436;2023-02-12T07:56:33;6.80;99.90
4081;DHT22;2055;50.074;8.436;2023-02-12T07:59:04;6.90;99.90
4081;DHT22;2055;50.074;8.436;2023-02-12T08:01:33;7.00;99.90
4081;DHT22;2055;50.074;8.436;2023-02-12T08:04:01;7.00;99.90
4081;DHT22;2055;50.074;8.436;2023-02-12T08:06:29;7.10;99.90
4081;DHT22;2055;50.074;8.436;2023-02-12T08:08:57;7.20;99.90
4081;DHT22;2055;50.074;8.436;2023-02-12T08:11:24;7.30;99.90
4081;DHT22;2055;50.074;8.436;2023-02-12T08:13:51;7.30;99.90
4081;DHT22;2055;50.074;8.436;2023-02-12T08:16:19;7.40;99.90
4081;DHT22;2055;50.074;8.436;2023-02-12T08:18:45;7.50;99.90
4081;DHT22;2055;50.074;8.436;2023-02-12T08:21:14;7.50;99.90
4081;DHT22;2055;50.074;8.436;2023-02-12T08:23:40;7.60;99.90
4081;DHT22;2055;50.074;8.436;2023-02-12T08:26:08;7.60;99.90
4081;DHT22;2055;50.074;8.436;2023-02-12T08:28:35;7.60;99.90
4081;DHT22;2055;50.074;8.436;2023-02-12T08:31:03;7.70;99.90
4081;DHT22;2055;50.074;8.436;2023-02-12T08:33:29;7.80;99.90
4081;DHT22;2055;50.074;8.436;2023-02-12T08:36:02;7.80;99.90
4081;DHT22;2055;50.074;8.436;2023-02-12T08:38:28;7.90;99.90
4081;DHT22;2055;50.074;8.436;2023-02-12T08:40:55;7.90;99.90
4081;DHT22;2055;50.074;8.436;2023-02-12T08:43:20;8.00;99.90
4081;DHT22;2055;50.074;8.436;2023-02-12T08:45:46;8.10;99.90
4081;DHT22;2055;50.074;8.436;2023-02-12T08:48:11;8.10;99.90
4081;DHT22;2055;50.074;8.436;2023-02-12T08:50:37;8.00;99.90
4081;DHT22;2055;50.074;8.436;2023-02-12T08:53:03;8.00;99.90
4081;DHT22;2055;50.074;8.436;2023-02-12T08:55:28;8.10;99.90
4081;DHT22;2055;50.074;8.436;2023-02-12T08:57:54;8.30;99.90
4081;DHT22;2055;50.074;8.436;2023-02-12T09:00:22;8.40;99.90
4081;DHT22;2055;50.074;8.436;2023-02-12T09:02:48;8.30;99.90
4081;DHT22;2055;50.074;8.436;2023-02-12T09:05:14;8.10;99.90
4081;DHT22;2055;50.074;8.436;2023-02-12T09:07:39;8.10;99.90
4081;DHT22;2055;50.074;8.436;2023-02-12T09:10:06;7.80;99.90
4081;DHT22;2055;50.074;8.436;2023-02-12T09:12:32;7.70;99.90
4081;DHT22;2055;50.074;8.436;2023-02-12T09:14:57;7.70;99.90
4081;DHT22;2055;50.074;8.436;2023-02-12T09:17:24;7.80;99.90
4081;DHT22;2055;50.074;8.436;2023-02-12T09:19:52;7.80;99.90
4081;DHT22;2055;50.074;8.436;2023-02-12T09:22:17;7.90;99.90
4081;DHT22;2055;50.074;8.436;2023-02-12T09:24:43;8.10;99.90
4081;DHT22;2055;50.074;8.436;2023-02-12T09:27:09;8.00;99.90
4081;DHT22;2055;50.074;8.436;2023-02-12T09:29:34;8.00;99.90
4081;DHT22;2055;50.074;8.436;2023-02-12T09:32:00;7.90;99.90
4081;DHT22;2055;50.074;8.436;2023-02-12T09:34:29;8.00;99.90
4081;DHT22;2055;50.074;8.436;2023-02-12T09:36:55;8.00;99.90
4081;DHT22;2055;50.074;8.436;2023-02-12T09:39:20;7.90;99.90
4081;DHT22;2055;50.074;8.436;2023-02-12T09:47:03;7.90;99.90
4081;DHT22;2055;50.074;8.436;2023-02-12T09:51:59;8.10;99.90
4081;DHT22;2055;50.074;8.436;2023-02-12T09:54:36;8.10;99.90
4081;DHT22;2055;50.074;8.436;2023-02-12T09:57:06;8.10;99.90
4081;DHT22;2055;50.074;8.436;2023-02-12T09:59:44;8.20;99.90
4081;DHT22;2055;50.074;8.436;2023-02-12T10:02:15;8.20;99.90
4081;DHT22;2055;50.074;8.436;2023-02-12T10:04:42;9.10;99.90
4081;DHT22;2055;50.074;8.436;2023-02-12T10:12:54;8.60;99.90
4081;DHT22;2055;50.074;8.436;2023-02-12T10:15:36;8.60;99.90
4081;DHT22;2055;50.074;8.436;2023-02-12T10:20:56;8.70;99.90
4081;DHT22;2055;50.074;8.436;2023-02-12T10:26:12;8.70;99.90
4081;DHT22;2055;50.074;8.436;2023-02-12T10:28:40;8.70;99.90
4081;DHT22;2055;50.074;8.436;2023-02-12T10:31:13;8.90;99.90
4081;DHT22;2055;50.074;8.436;2023-02-12T10:33:48;9.00;99.90
4081;DHT22;2055;50.074;8.436;2023-02-12T10:36:24;8.80;99.90
4081;DHT22;2055;50.074;8.436;2023-02-12T10:38:54;8.80;99.90
4081;DHT22;2055;50.074;8.436;2023-02-12T10:41:22;8.70;99.90
4081;DHT22;2055;50.074;8.436;2023-02-12T10:43:49;8.70;99.90
4081;DHT22;2055;50.074;8.436;2023-02-12T10:46:15;8.60;99.90
4081;DHT22;2055;50.074;8.436;2023-02-12T10:48:44;8.60;99.90
4081;DHT22;2055;50.074;8.436;2023-02-12T10:54:33;8.80;99.90
4081;DHT22;2055;50.074;8.436;2023-02-12T10:57:26;8.70;99.90
4081;DHT22;2055;50.074;8.436;2023-02-12T10:59:53;8.80;99.90
4081;DHT22;2055;50.074;8.436;2023-02-12T11:02:32;8.90;99.90
4081;DHT22;2055;50.074;8.436;2023-02-12T11:05:00;8.90;99.90
4081;DHT22;2055;50.074;8.436;2023-02-12T11:07:49;9.10;99.90
4081;DHT22;2055;50.074;8.436;2023-02-12T11:10:29;9.30;99.90
4081;DHT22;2055;50.074;8.436;2023-02-12T11:12:57;9.50;99.90
4081;DHT22;2055;50.074;8.436;2023-02-12T11:15:25;9.40;99.90
4081;DHT22;2055;50.074;8.436;2023-02-12T11:18:00;9.30;99.90
4081;DHT22;2055;50.074;8.436;2023-02-12T11:20:40;9.20;99.90
4081;DHT22;2055;50.074;8.436;2023-02-12T11:23:30;9.30;99.90
4081;DHT22;2055;50.074;8.436;2023-02-12T11:25:59;9.40;99.90
4081;DHT22;2055;50.074;8.436;2023-02-12T11:28:25;9.30;99.90
4081;DHT22;2055;50.074;8.436;2023-02-12T11:31:01;9.30;99.90
4081;DHT22;2055;50.074;8.436;2023-02-12T11:35:59;9.70;99.90
4081;DHT22;2055;50.074;8.436;2023-02-12T11:38:29;9.80;99.90
4081;DHT22;2055;50.074;8.436;2023-02-12T11:40:58;9.80;99.90
4081;DHT22;2055;50.074;8.436;2023-02-12T11:43:27;9.70;99.90
4081;DHT22;2055;50.074;8.436;2023-02-12T11:45:54;9.80;99.90
4081;DHT22;2055;50.074;8.436;2023-02-12T11:48:28;10.00;99.90
4081;DHT22;2055;50.074;8.436;2023-02-12T11:50:56;10.10;99.90
4081;DHT22;2055;50.074;8.436;2023-02-12T11:53:29;9.70;99.90
4081;DHT22;2055;50.074;8.436;2023-02-12T11:56:01;9.80;99.90
4081;DHT22;2055;50.074;8.436;2023-02-12T11:58:29;9.80;99.90
4081;DHT22;2055;50.074;8.436;2023-02-12T12:03:40;9.70;99.90
4081;DHT22;2055;50.074;8.436;2023-02-12T12:06:20;9.70;99.90
4081;DHT22;2055;50.074;8.436;2023-02-12T12:09:01;9.90;99.90
4081;DHT22;2055;50.074;8.436;2023-02-12T12:11:36;10.00;99.90
4081;DHT22;2055;50.074;8.436;2023-02-12T12:14:08;10.30;99.90
4081;DHT22;2055;50.074;8.436;2023-02-12T12:16:43;10.50;99.90
4081;DHT22;2055;50.074;8.436;2023-02-12T12:22:54;11.10;99.90
4081;DHT22;2055;50.074;8.436;2023-02-12T12:28:05;10.90;99.90
4081;DHT22;2055;50.074;8.436;2023-02-12T12:33:31;11.20;99.90
4081;DHT22;2055;50.074;8.436;2023-02-12T12:36:07;11.00;99.90
4081;DHT22;2055;50.074;8.436;2023-02-12T12:38:51;11.00;99.90
4081;DHT22;2055;50.074;8.436;2023-02-12T12:41:28;11.20;99.90
4081;DHT22;2055;50.074;8.436;2023-02-12T12:50:19;11.20;99.90
4081;DHT22;2055;50.074;8.436;2023-02-12T12:53:03;11.20;99.90
4081;DHT22;2055;50.074;8.436;2023-02-12T12:58:58;11.40;99.90
4081;DHT22;2055;50.074;8.436;2023-02-12T13:04:31;11.80;99.90
4081;DHT22;2055;50.074;8.436;2023-02-12T13:10:01;11.80;99.90
4081;DHT22;2055;50.074;8.436;2023-02-12T13:12:45;11.80;99.90
4081;DHT22;2055;50.074;8.436;2023-02-12T13:17:49;11.70;99.90
4081;DHT22;2055;50.074;8.436;2023-02-12T13:20:18;11.90;99.90
4081;DHT22;2055;50.074;8.436;2023-02-12T13:25:46;11.60;99.90
4081;DHT22;2055;50.074;8.436;2023-02-12T13:31:33;11.60;99.90
4081;DHT22;2055;50.074;8.436;2023-02-12T13:34:11;11.60;99.90
4081;DHT22;2055;50.074;8.436;2023-02-12T13:36:39;11.40;99.90
4081;DHT22;2055;50.074;8.436;2023-02-12T13:39:17;11.50;99.90
4081;DHT22;2055;50.074;8.436;2023-02-12T13:42:30;11.60;99.90
4081;DHT22;2055;50.074;8.436;2023-02-12T13:44:55;11.60;99.90
4081;DHT22;2055;50.074;8.436;2023-02-12T13:50:26;11.70;99.90
4081;DHT22;2055;50.074;8.436;2023-02-12T13:53:01;11.80;99.90
4081;DHT22;2055;50.074;8.436;2023-02-12T13:55:37;11.60;99.90
4081;DHT22;2055;50.074;8.436;2023-02-12T14:03:33;11.00;99.90
4081;DHT22;2055;50.074;8.436;2023-02-12T14:06:18;10.80;99.90
4081;DHT22;2055;50.074;8.436;2023-02-12T14:08:50;10.80;99.90
4081;DHT22;2055;50.074;8.436;2023-02-12T14:11:19;10.70;99.90
4081;DHT22;2055;50.074;8.436;2023-02-12T14:13:59;10.70;99.90
4081;DHT22;2055;50.074;8.436;2023-02-12T14:21:56;11.00;99.90
4081;DHT22;2055;50.074;8.436;2023-02-12T14:27:19;10.90;99.90
4081;DHT22;2055;50.074;8.436;2023-02-12T14:35:38;10.50;99.90
4081;DHT22;2055;50.074;8.436;2023-02-12T14:40:46;10.50;99.90
4081;DHT22;2055;50.074;8.436;2023-02-12T14:54:44;10.00;99.90
4081;DHT22;2055;50.074;8.436;2023-02-12T15:02:47;10.10;99.90
4081;DHT22;2055;50.074;8.436;2023-02-12T15:07:58;10.10;99.90
4081;DHT22;2055;50.074;8.436;2023-02-12T15:10:33;10.10;99.90
4081;DHT22;2055;50.074;8.436;2023-02-12T15:13:24;10.00;99.90
4081;DHT22;2055;50.074;8.436;2023-02-12T15:19:21;9.90;99.90
4081;DHT22;2055;50.074;8.436;2023-02-12T15:21:50;9.80;99.90
4081;DHT22;2055;50.074;8.436;2023-02-12T15:24:24;9.80;99.90
4081;DHT22;2055;50.074;8.436;2023-02-12T15:26:52;9.70;99.90
4081;DHT22;2055;50.074;8.436;2023-02-12T15:29:30;9.90;99.90
4081;DHT22;2055;50.074;8.436;2023-02-12T15:32:03;9.90;99.90
4081;DHT22;2055;50.074;8.436;2023-02-12T15:34:31;9.90;99.90
4081;DHT22;2055;50.074;8.436;2023-02-12T15:37:00;10.00;99.90
4081;DHT22;2055;50.074;8.436;2023-02-12T15:39:26;9.80;99.90
4081;DHT22;2055;50.074;8.436;2023-02-12T15:41:53;9.70;99.90
4081;DHT22;2055;50.074;8.436;2023-02-12T15:44:28;9.60;99.90
4081;DHT22;2055;50.074;8.436;2023-02-12T15:47:12;9.60;99.90
4081;DHT22;2055;50.074;8.436;2023-02-12T15:49:39;9.50;99.90
4081;DHT22;2055;50.074;8.436;2023-02-12T15:52:17;9.40;99.90
4081;DHT22;2055;50.074;8.436;2023-02-12T15:54:45;9.40;99.90
4081;DHT22;2055;50.074;8.436;2023-02-12T15:57:13;9.30;99.90
4081;DHT22;2055;50.074;8.436;2023-02-12T15:59:47;9.20;99.90
4081;DHT22;2055;50.074;8.436;2023-02-12T16:02:24;9.10;99.90
4081;DHT22;2055;50.074;8.436;2023-02-12T16:04:52;9.00;99.90
4081;DHT22;2055;50.074;8.436;2023-02-12T16:07:19;8.90;99.90
4081;DHT22;2055;50.074;8.436;2023-02-12T16:09:45;8.90;99.90
4081;DHT22;2055;50.074;8.436;2023-02-12T16:12:16;8.90;99.90
4081;DHT22;2055;50.074;8.436;2023-02-12T16:14:46;8.90;99.90
4081;DHT22;2055;50.074;8.436;2023-02-12T16:17:28;8.80;99.90
4081;DHT22;2055;50.074;8.436;2023-02-12T16:20:01;8.80;99.90
4081;DHT22;2055;50.074;8.436;2023-02-12T16:22:34;8.80;99.90
4081;DHT22;2055;50.074;8.436;2023-02-12T16:25:01;8.70;99.90
4081;DHT22;2055;50.074;8.436;2023-02-12T16:27:30;8.60;99.90
4081;DHT22;2055;50.074;8.436;2023-02-12T16:30:01;8.60;99.90
4081;DHT22;2055;50.074;8.436;2023-02-12T16:32:40;9.10;99.90
4081;DHT22;2055;50.074;8.436;2023-02-12T16:40:19;8.30;99.90
4081;DHT22;2055;50.074;8.436;2023-02-12T16:48:16;8.10;99.90
4081;DHT22;2055;50.074;8.436;2023-02-12T16:50:48;8.00;99.90
4081;DHT22;2055;50.074;8.436;2023-02-12T16:53:35;7.90;99.90
4081;DHT22;2055;50.074;8.436;2023-02-12T16:56:03;7.90;99.90
4081;DHT22;2055;50.074;8.436;2023-02-12T16:58:29;7.80;99.90
4081;DHT22;2055;50.074;8.436;2023-02-12T17:00:57;7.80;99.90
4081;DHT22;2055;50.074;8.436;2023-02-12T17:03:24;7.70;99.90
4081;DHT22;2055;50.074;8.436;2023-02-12T17:05:50;7.70;99.90
4081;DHT22;2055;50.074;8.436;2023-02-12T17:08:21;7.60;99.90
4081;DHT22;2055;50.074;8.436;2023-02-12T17:10:48;7.60;99.90
4081;DHT22;2055;50.074;8.436;2023-02-12T17:13:15;7.60;99.90
4081;DHT22;2055;50.074;8.436;2023-02-12T17:15:59;7.50;99.90
4081;DHT22;2055;50.074;8.436;2023-02-12T17:18:27;7.50;99.90
4081;DHT22;2055;50.074;8.436;2023-02-12T17:20:58;7.50;99.90
4081;DHT22;2055;50.074;8.436;2023-02-12T17:23:25;7.40;99.90
4081;DHT22;2055;50.074;8.436;2023-02-12T17:25:51;7.40;99.90
4081;DHT22;2055;50.074;8.436;2023-02-12T17:28:16;7.30;99.90
4081;DHT22;2055;50.074;8.436;2023-02-12T17:30:43;7.30;99.90
4081;DHT22;2055;50.074;8.436;2023-02-12T17:33:09;7.30;99.90
4081;DHT22;2055;50.074;8.436;2023-02-12T17:35:36;7.30;99.90
4081;DHT22;2055;50.074;8.436;2023-02-12T17:38:02;7.30;99.90
4081;DHT22;2055;50.074;8.436;2023-02-12T17:40:28;7.20;99.90
4081;DHT22;2055;50.074;8.436;2023-02-12T17:42:53;7.20;99.90
4081;DHT22;2055;50.074;8.436;2023-02-12T17:45:19;7.20;99.90
4081;DHT22;2055;50.074;8.436;2023-02-12T17:47:44;7.20;99.90
4081;DHT22;2055;50.074;8.436;2023-02-12T17:50:13;7.20;99.90
4081;DHT22;2055;50.074;8.436;2023-02-12T17:52:39;7.20;99.90
4081;DHT22;2055;50.074;8.436;2023-02-12T17:55:06;7.20;99.90
4081;DHT22;2055;50.074;8.436;2023-02-12T17:57:31;7.20;99.90
4081;DHT22;2055;50.074;8.436;2023-02-12T17:59:57;7.00;99.90
4081;DHT22;2055;50.074;8.436;2023-02-12T18:02:23;7.10;99.90
4081;DHT22;2055;50.074;8.436;2023-02-12T18:04:48;7.20;99.90
4081;DHT22;2055;50.074;8.436;2023-02-12T18:07:14;7.10;99.90
4081;DHT22;2055;50.074;8.436;2023-02-12T18:09:39;7.10;99.90
4081;DHT22;2055;50.074;8.436;2023-02-12T18:12:05;7.10;99.90
4081;DHT22;2055;50.074;8.436;2023-02-12T18:14:31;7.10;99.90
4081;DHT22;2055;50.074;8.436;2023-02-12T18:16:56;7.10;99.90
4081;DHT22;2055;50.074;8.436;2023-02-12T18:19:24;7.00;99.90
4081;DHT22;2055;50.074;8.436;2023-02-12T18:21:50;7.10;99.90
4081;DHT22;2055;50.074;8.436;2023-02-12T18:24:15;7.10;99.90
4081;DHT22;2055;50.074;8.436;2023-02-12T18:26:41;7.10;99.90
4081;DHT22;2055;50.074;8.436;2023-02-12T18:29:06;7.00;99.90
4081;DHT22;2055;50.074;8.436;2023-02-12T18:31:32;7.00;99.90
4081;DHT22;2055;50.074;8.436;2023-02-12T18:33:57;7.10;99.90
4081;DHT22;2055;50.074;8.436;2023-02-12T18:36:23;7.00;99.90
4081;DHT22;2055;50.074;8.436;2023-02-12T18:38:50;7.10;99.90
4081;DHT22;2055;50.074;8.436;2023-02-12T18:41:19;7.20;99.90
4081;DHT22;2055;50.074;8.436;2023-02-12T18:43:45;7.30;99.90
4081;DHT22;2055;50.074;8.436;2023-02-12T18:46:13;7.40;99.90
4081;DHT22;2055;50.074;8.436;2023-02-12T18:48:39;7.40;99.90
4081;DHT22;2055;50.074;8.436;2023-02-12T18:51:06;7.50;99.90
4081;DHT22;2055;50.074;8.436;2023-02-12T18:53:32;7.50;99.90
4081;DHT22;2055;50.074;8.436;2023-02-12T18:56:01;7.50;99.90
4081;DHT22;2055;50.074;8.436;2023-02-12T18:58:28;7.50;99.90
4081;DHT22;2055;50.074;8.436;2023-02-12T19:00:53;7.50;99.90